createdAt,value
2017-11-10T00:00:20.130Z,11.23
2017-11-10T00:02:48.487Z,11.04
2017-11-10T00:05:17.543Z,11.03
2017-11-10T00:07:47.538Z,10.89
2017-11-10T00:10:16.162Z,10.88
2017-11-10T00:12:44.555Z,11.15
2017-11-10T00:15:14.507Z,11.28
2017-11-10T00:17:42.884Z,11.01
2017-11-10T00:20:11.261Z,11.06
2017-11-10T00:22:39.636Z,11.12
2017-11-10T00:25:08.014Z,11.19
2017-11-10T00:27:36.539Z,11.17
2017-11-10T00:30:05.607Z,11.23
2017-11-10T00:32:34.070Z,11.03
2017-11-10T00:35:02.704Z,11.25
2017-11-10T00:37:32.208Z,11.38
2017-11-10T00:40:00.582Z,11.33
2017-11-10T00:42:29.034Z,11.59
2017-11-10T00:44:57.412Z,11.26
2017-11-10T00:47:25.840Z,11.25
2017-11-10T00:49:54.396Z,11.48
2017-11-10T00:52:23.447Z,11.58
2017-11-10T00:54:52.630Z,11.40
2017-11-10T00:57:21.194Z,11.52
2017-11-10T00:59:50.207Z,11.49
2017-11-10T01:02:19.355Z,11.60
2017-11-10T01:04:47.889Z,11.79
2017-11-10T01:07:17.134Z,11.59
2017-11-10T01:09:45.473Z,11.72
2017-11-10T01:12:14.945Z,11.86
2017-11-10T01:14:43.694Z,11.78
2017-11-10T01:17:13.022Z,11.71
2017-11-10T01:19:42.319Z,11.52
2017-11-10T01:22:16.550Z,11.60
2017-11-10T01:24:45.056Z,11.78
2017-11-10T01:27:13.428Z,11.73
2017-11-10T01:29:42.270Z,11.70
2017-11-10T01:32:10.819Z,11.69
2017-11-10T01:34:39.204Z,11.55
2017-11-10T01:37:07.604Z,11.46
2017-11-10T01:39:36.847Z,11.37
2017-11-10T01:42:05.234Z,11.47
2017-11-10T01:44:34.119Z,11.50
2017-11-10T01:47:02.671Z,11.46
2017-11-10T01:49:31.001Z,11.55
2017-11-10T01:52:00.383Z,11.22
2017-11-10T01:54:29.853Z,11.14
2017-11-10T01:56:58.203Z,11.37
2017-11-10T01:59:26.572Z,11.46
2017-11-10T02:01:58.910Z,11.48
2017-11-10T02:04:27.260Z,11.08
2017-11-10T02:06:56.655Z,11.32
2017-11-10T02:09:25.104Z,11.19
2017-11-10T02:11:55.327Z,11.17
2017-11-10T02:14:23.848Z,11.33
2017-11-10T02:16:52.203Z,11.42
2017-11-10T02:19:21.322Z,11.27
2017-11-10T02:21:49.717Z,11.02
2017-11-10T02:24:18.046Z,10.99
2017-11-10T02:26:47.172Z,11.08
2017-11-10T02:29:16.667Z,11.19
2017-11-10T02:31:45.854Z,11.00
2017-11-10T02:34:15.130Z,11.25
2017-11-10T02:36:44.805Z,11.13
2017-11-10T02:39:13.177Z,11.24
2017-11-10T02:41:41.543Z,11.31
2017-11-10T02:44:09.906Z,11.28
2017-11-10T02:46:39.014Z,11.39
2017-11-10T02:49:07.355Z,11.26
2017-11-10T02:51:35.723Z,11.25
2017-11-10T02:54:04.057Z,11.34
2017-11-10T02:56:32.398Z,11.39
2017-11-10T02:59:01.220Z,11.44
2017-11-10T03:01:29.567Z,11.64
2017-11-10T03:03:57.927Z,11.45
2017-11-10T03:06:27.088Z,11.46
2017-11-10T03:08:55.438Z,11.70
2017-11-10T03:11:25.162Z,11.57
2017-11-10T03:13:53.555Z,11.57
2017-11-10T03:16:22.436Z,11.45
2017-11-10T03:18:50.796Z,11.26
2017-11-10T03:21:21.050Z,11.50
2017-11-10T03:23:49.668Z,11.66
2017-11-10T03:26:18.025Z,11.27
2017-11-10T03:28:46.386Z,11.49
2017-11-10T03:31:14.769Z,11.70
2017-11-10T03:33:43.119Z,11.62
2017-11-10T03:36:12.312Z,11.80
2017-11-10T03:38:40.691Z,11.86
2017-11-10T03:41:09.842Z,11.59
2017-11-10T03:43:38.767Z,11.56
2017-11-10T03:46:07.126Z,11.70
2017-11-10T03:48:35.464Z,11.60
2017-11-10T03:51:04.481Z,11.62
2017-11-10T03:53:32.855Z,11.56
2017-11-10T03:56:01.214Z,11.25
2017-11-10T03:58:30.311Z,11.24
2017-11-10T04:00:58.646Z,11.16
2017-11-10T04:03:26.994Z,11.21
2017-11-10T04:05:55.445Z,11.42
2017-11-10T04:08:23.786Z,11.61
2017-11-10T04:10:52.145Z,11.43
2017-11-10T04:13:20.513Z,11.32
2017-11-10T04:15:48.874Z,11.31
2017-11-10T04:18:17.890Z,11.31
2017-11-10T04:20:46.289Z,11.39
2017-11-10T04:23:14.912Z,11.44
2017-11-10T04:25:43.978Z,11.54
2017-11-10T04:28:12.411Z,11.53
2017-11-10T04:30:42.431Z,11.58
2017-11-10T04:33:11.428Z,11.78
2017-11-10T04:35:40.018Z,11.63
2017-11-10T04:38:08.371Z,11.56
2017-11-10T04:40:36.840Z,11.61
2017-11-10T04:43:05.997Z,11.75
2017-11-10T04:45:35.174Z,11.78
2017-11-10T04:48:03.760Z,11.88
2017-11-10T04:50:33.647Z,11.86
2017-11-10T04:53:02.628Z,11.97
2017-11-10T04:55:30.976Z,11.61
2017-11-10T04:58:00.154Z,11.81
2017-11-10T05:00:28.516Z,11.79
2017-11-10T05:05:28.031Z,11.69
2017-11-10T05:07:56.588Z,11.54
2017-11-10T05:10:24.943Z,11.49
2017-11-10T05:12:53.992Z,11.38
2017-11-10T05:15:22.592Z,11.40
2017-11-10T05:17:50.926Z,11.57
2017-11-10T05:20:19.313Z,11.44
2017-11-10T05:22:47.654Z,11.10
2017-11-10T05:25:16.879Z,11.19
2017-11-10T05:27:46.519Z,11.43
2017-11-10T05:30:15.626Z,11.46
2017-11-10T05:32:44.446Z,11.16
2017-11-10T05:35:13.031Z,11.05
2017-11-10T05:37:41.387Z,11.11
2017-11-10T05:40:10.422Z,11.23
2017-11-10T05:42:39.424Z,11.15
2017-11-10T05:45:09.134Z,11.20
2017-11-10T05:47:37.478Z,10.82
2017-11-10T05:50:05.855Z,11.19
2017-11-10T05:52:34.205Z,11.36
2017-11-10T05:55:02.550Z,11.31
2017-11-10T05:57:32.642Z,11.31
2017-11-10T06:00:00.985Z,11.02
2017-11-10T06:02:29.363Z,11.24
2017-11-10T06:04:58.350Z,11.21
2017-11-10T06:07:26.687Z,11.02
2017-11-10T06:09:55.991Z,11.05
2017-11-10T06:12:24.405Z,11.00
2017-11-10T06:14:53.539Z,10.67
2017-11-10T06:17:21.878Z,11.07
2017-11-10T06:19:51.258Z,10.95
2017-11-10T06:22:20.379Z,10.98
2017-11-10T06:24:48.723Z,10.87
2017-11-10T06:27:17.100Z,11.16
2017-11-10T06:29:46.433Z,11.19
2017-11-10T06:32:14.985Z,11.01
2017-11-10T06:34:43.640Z,11.09
2017-11-10T06:37:11.981Z,10.98
2017-11-10T06:39:41.072Z,11.14
2017-11-10T06:42:09.520Z,11.17
2017-11-10T06:44:37.871Z,11.08
2017-11-10T06:47:07.433Z,11.16
2017-11-10T06:49:36.575Z,11.04
2017-11-10T06:52:04.915Z,11.00
2017-11-10T06:54:33.256Z,11.02
2017-11-10T06:57:01.639Z,11.17
2017-11-10T06:59:29.977Z,10.99
2017-11-10T07:01:58.303Z,11.15
2017-11-10T07:04:26.826Z,10.99
2017-11-10T07:06:55.285Z,11.06
2017-11-10T07:09:24.288Z,10.85
2017-11-10T07:11:52.664Z,10.97
2017-11-10T07:14:21.777Z,10.86
2017-11-10T07:16:51.478Z,11.02
2017-11-10T07:19:20.249Z,11.12
2017-11-10T07:21:48.594Z,11.23
2017-11-10T07:24:16.942Z,11.15
2017-11-10T07:26:46.136Z,10.92
2017-11-10T07:29:15.027Z,10.87
2017-11-10T07:31:43.425Z,11.30
2017-11-10T07:34:11.835Z,11.01
2017-11-10T07:36:40.179Z,11.15
2017-11-10T07:39:08.576Z,11.44
2017-11-10T07:41:37.864Z,11.21
2017-11-10T07:44:06.223Z,10.93
2017-11-10T07:46:34.816Z,10.95
2017-11-10T07:49:04.459Z,11.04
2017-11-10T07:51:33.193Z,10.77
2017-11-10T07:54:03.346Z,11.07
2017-11-10T07:56:31.734Z,10.84
2017-11-10T07:59:00.127Z,11.07
2017-11-10T08:01:29.195Z,10.75
2017-11-10T08:04:01.543Z,11.18
2017-11-10T08:06:29.886Z,11.17
2017-11-10T08:08:59.189Z,11.02
2017-11-10T08:11:28.250Z,11.07
2017-11-10T08:13:58.143Z,10.95
2017-11-10T08:16:26.497Z,10.97
2017-11-10T08:18:55.651Z,10.80
2017-11-10T08:21:24.475Z,11.07
2017-11-10T08:23:54.664Z,10.91
2017-11-10T08:26:23.042Z,11.08
2017-11-10T08:28:51.719Z,11.15
2017-11-10T08:31:20.295Z,11.20
2017-11-10T08:33:49.190Z,11.47
2017-11-10T08:36:17.524Z,11.15
2017-11-10T08:38:46.637Z,11.08
2017-11-10T08:41:15.698Z,11.37
2017-11-10T08:43:44.073Z,11.61
2017-11-10T08:46:13.292Z,11.53
2017-11-10T08:48:43.227Z,11.56
2017-11-10T08:51:12.450Z,11.48
2017-11-10T08:53:40.798Z,11.16
2017-11-10T08:56:09.781Z,11.11
2017-11-10T08:58:38.881Z,11.11
2017-11-10T09:01:07.276Z,11.13
2017-11-10T09:03:35.926Z,11.26
2017-11-10T09:06:04.287Z,11.07
2017-11-10T09:08:32.643Z,11.28
2017-11-10T09:11:01.018Z,11.21
2017-11-10T09:13:29.771Z,11.15
2017-11-10T09:15:59.583Z,11.29
2017-11-10T09:18:28.666Z,11.49
2017-11-10T09:20:58.020Z,11.13
2017-11-10T09:23:26.738Z,11.19
2017-11-10T09:25:55.096Z,11.27
2017-11-10T09:28:28.696Z,11.46
2017-11-10T09:31:04.234Z,11.51
2017-11-10T09:33:45.257Z,11.72
2017-11-10T09:36:20.358Z,11.34
2017-11-10T09:42:19.240Z,11.42
2017-11-10T09:44:47.586Z,11.40
2017-11-10T09:50:42.047Z,11.47
2017-11-10T09:53:11.773Z,11.43
2017-11-10T09:55:43.438Z,11.40
2017-11-10T10:01:42.595Z,11.30
2017-11-10T10:04:13.197Z,11.60
2017-11-10T10:06:44.274Z,11.65
2017-11-10T10:12:21.356Z,12.11
2017-11-10T10:18:02.084Z,12.23
2017-11-10T10:20:34.867Z,12.03
2017-11-10T10:23:03.218Z,12.25
2017-11-10T10:25:32.348Z,12.05
2017-11-10T10:28:00.954Z,12.25
2017-11-10T10:30:29.918Z,12.50
2017-11-10T10:32:58.259Z,12.08
2017-11-10T10:35:26.692Z,12.17
2017-11-10T10:37:55.055Z,11.85
2017-11-10T10:40:24.298Z,11.73
2017-11-10T10:42:53.649Z,11.76
2017-11-10T10:45:22.001Z,11.75
2017-11-10T10:47:50.357Z,11.82
2017-11-10T10:50:18.930Z,11.39
2017-11-10T10:52:48.750Z,11.47
2017-11-10T10:55:17.103Z,11.60
2017-11-10T10:57:46.104Z,11.77
2017-11-10T11:00:14.454Z,12.07
2017-11-10T11:02:42.855Z,12.00
2017-11-10T11:05:11.238Z,11.99
2017-11-10T11:07:39.599Z,11.98
2017-11-10T11:10:07.953Z,12.14
2017-11-10T11:12:37.871Z,12.26
2017-11-10T11:15:07.492Z,12.12
2017-11-10T11:17:36.596Z,11.82
2017-11-10T11:20:05.833Z,12.01
2017-11-10T11:22:34.387Z,12.13
2017-11-10T11:25:02.754Z,12.37
2017-11-10T11:27:31.347Z,12.63
2017-11-10T11:29:59.707Z,12.61
2017-11-10T11:32:28.094Z,12.81
2017-11-10T11:34:57.279Z,12.93
2017-11-10T11:37:26.403Z,13.02
2017-11-10T11:39:54.754Z,12.94
2017-11-10T11:42:24.125Z,12.77
2017-11-10T11:44:52.750Z,12.86
2017-11-10T11:47:21.868Z,12.88
2017-11-10T11:49:50.256Z,12.25
2017-11-10T11:52:18.989Z,12.60
2017-11-10T11:54:47.354Z,12.70
2017-11-10T11:57:16.366Z,12.38
2017-11-10T11:59:44.715Z,12.15
2017-11-10T12:02:13.391Z,12.25
2017-11-10T12:04:42.468Z,12.54
2017-11-10T12:07:11.152Z,12.39
2017-11-10T12:09:41.053Z,12.50
2017-11-10T20:21:09.749Z,7.84
2017-11-10T20:23:38.559Z,7.75
2017-11-10T20:26:06.910Z,7.94
2017-11-10T20:28:35.502Z,8.06
2017-11-10T20:31:03.844Z,8.02
2017-11-10T20:33:32.231Z,7.93
2017-11-10T20:36:01.680Z,7.82
2017-11-10T20:38:30.023Z,7.98
2017-11-10T20:40:59.487Z,7.67
2017-11-10T20:43:28.925Z,7.67
2017-11-10T20:45:58.303Z,7.41
2017-11-10T20:48:26.921Z,7.51
2017-11-10T20:50:55.500Z,7.70
2017-11-10T20:53:23.856Z,7.63
2017-11-10T20:55:52.224Z,7.85
2017-11-10T20:58:21.166Z,7.74
2017-11-10T21:00:49.518Z,7.74
2017-11-10T21:03:18.761Z,7.66
2017-11-10T21:05:47.176Z,7.54
2017-11-10T21:08:16.337Z,7.64
2017-11-10T21:10:45.208Z,7.65
2017-11-10T21:13:14.450Z,7.56
2017-11-10T21:15:43.505Z,7.64
2017-11-10T21:18:11.869Z,7.69
2017-11-10T21:20:41.562Z,7.66
2017-11-10T21:23:10.478Z,7.48
2017-11-10T21:25:38.847Z,7.64
2017-11-10T21:28:08.063Z,7.69
2017-11-10T21:30:37.385Z,7.61
2017-11-10T21:33:05.731Z,7.36
2017-11-10T21:35:34.103Z,7.45
2017-11-10T21:38:02.464Z,7.37
2017-11-10T21:40:31.681Z,7.22
2017-11-10T21:43:01.068Z,7.19
2017-11-10T21:45:30.554Z,7.16
2017-11-10T21:47:59.014Z,7.06
2017-11-10T21:50:27.818Z,6.78
2017-11-10T21:52:57.050Z,6.94
2017-11-10T21:55:26.199Z,6.80
2017-11-10T21:57:54.710Z,6.64
2017-11-10T22:00:23.072Z,6.75
2017-11-10T22:02:51.426Z,6.82
2017-11-10T22:05:19.797Z,6.61
2017-11-10T22:07:48.913Z,6.71
2017-11-10T22:10:17.232Z,6.57
2017-11-10T22:12:45.748Z,6.79
2017-11-10T22:15:14.081Z,6.78
2017-11-10T22:17:42.424Z,6.81
2017-11-10T22:20:10.835Z,6.83
2017-11-10T22:22:39.859Z,6.60
2017-11-10T22:25:11.394Z,6.70
2017-11-10T22:27:39.791Z,6.66
2017-11-10T22:30:08.899Z,6.94
2017-11-10T22:32:37.971Z,6.70
2017-11-10T22:35:06.552Z,6.74
2017-11-10T22:37:34.874Z,6.88
2017-11-10T22:40:03.954Z,6.62
2017-11-10T22:42:32.340Z,6.81
2017-11-10T22:45:00.711Z,6.83
2017-11-10T22:47:29.817Z,6.70
2017-11-10T22:49:59.351Z,6.79
2017-11-10T22:52:27.985Z,6.80
2017-11-10T22:54:57.103Z,6.95
2017-11-10T22:57:25.588Z,6.97
2017-11-10T22:59:53.963Z,7.00
2017-11-10T23:02:22.309Z,7.23
2017-11-10T23:04:50.794Z,7.03
2017-11-10T23:07:19.138Z,7.08
2017-11-10T23:09:47.514Z,7.34
2017-11-10T23:12:15.935Z,7.56
2017-11-10T23:14:44.301Z,7.19
2017-11-10T23:17:12.668Z,7.49
2017-11-10T23:19:42.212Z,7.58
2017-11-10T23:22:10.557Z,7.72
2017-11-10T23:24:39.245Z,7.69
2017-11-10T23:27:08.480Z,7.75
2017-11-10T23:29:36.837Z,7.82
2017-11-10T23:32:05.762Z,7.63
2017-11-10T23:34:34.174Z,7.56
2017-11-10T23:37:03.486Z,7.61
2017-11-10T23:39:32.279Z,7.71
2017-11-10T23:42:00.894Z,7.65
2017-11-10T23:44:29.287Z,7.76
2017-11-10T23:46:59.023Z,7.66
2017-11-10T23:49:27.946Z,7.90
2017-11-10T23:51:56.326Z,7.97
2017-11-10T23:54:24.725Z,8.00
2017-11-10T23:56:54.228Z,7.91
2017-11-10T23:59:22.618Z,8.00
